sensor_id;sensor_type;location;lat;lon;timestamp;temperature;humidity
13440;DHT22;6792;57.698;11.946;2022-07-29T00:00:19;23.60;50.30
13440;DHT22;6792;57.698;11.946;2022-07-29T00:02:51;23.60;50.30
13440;DHT22;6792;57.698;11.946;2022-07-29T00:05:19;23.50;50.30
13440;DHT22;6792;57.698;11.946;2022-07-29T00:07:48;23.50;50.40
13440;DHT22;6792;57.698;11.946;2022-07-29T00:10:20;23.50;50.40
13440;DHT22;6792;57.698;11.946;2022-07-29T00:12:48;23.50;50.40
13440;DHT22;6792;57.698;11.946;2022-07-29T00:15:19;23.50;50.40
13440;DHT22;6792;57.698;11.946;2022-07-29T00:17:48;23.50;50.40
13440;DHT22;6792;57.698;11.946;2022-07-29T00:20:20;23.50;50.50
13440;DHT22;6792;57.698;11.946;2022-07-29T00:22:48;23.50;50.50
13440;DHT22;6792;57.698;11.946;2022-07-29T00:25:17;23.50;50.50
13440;DHT22;6792;57.698;11.946;2022-07-29T00:27:46;23.50;50.50
13440;DHT22;6792;57.698;11.946;2022-07-29T00:30:15;23.40;50.50
13440;DHT22;6792;57.698;11.946;2022-07-29T00:32:49;23.40;50.50
13440;DHT22;6792;57.698;11.946;2022-07-29T00:35:18;23.40;50.00
13440;DHT22;6792;57.698;11.946;2022-07-29T00:38:05;23.40;50.10
13440;DHT22;6792;57.698;11.946;2022-07-29T00:40:34;23.30;50.80
13440;DHT22;6792;57.698;11.946;2022-07-29T00:43:03;23.30;50.80
13440;DHT22;6792;57.698;11.946;2022-07-29T00:45:32;23.30;50.80
13440;DHT22;6792;57.698;11.946;2022-07-29T00:48:01;23.30;51.30
13440;DHT22;6792;57.698;11.946;2022-07-29T00:50:36;23.30;50.70
13440;DHT22;6792;57.698;11.946;2022-07-29T00:53:09;23.30;51.00
13440;DHT22;6792;57.698;11.946;2022-07-29T00:55:39;23.20;50.20
13440;DHT22;6792;57.698;11.946;2022-07-29T00:58:08;23.30;50.80
13440;DHT22;6792;57.698;11.946;2022-07-29T01:00:37;23.20;50.80
13440;DHT22;6792;57.698;11.946;2022-07-29T01:03:08;23.20;50.90
13440;DHT22;6792;57.698;11.946;2022-07-29T01:05:37;23.20;50.40
13440;DHT22;6792;57.698;11.946;2022-07-29T01:08:07;23.20;50.40
13440;DHT22;6792;57.698;11.946;2022-07-29T01:10:37;23.20;51.10
13440;DHT22;6792;57.698;11.946;2022-07-29T01:13:07;23.20;51.00
13440;DHT22;6792;57.698;11.946;2022-07-29T01:15:40;23.10;50.90
13440;DHT22;6792;57.698;11.946;2022-07-29T01:18:11;23.10;51.00
13440;DHT22;6792;57.698;11.946;2022-07-29T01:21:02;23.10;51.00
13440;DHT22;6792;57.698;11.946;2022-07-29T01:23:51;23.10;50.60
13440;DHT22;6792;57.698;11.946;2022-07-29T01:26:33;23.00;51.10
13440;DHT22;6792;57.698;11.946;2022-07-29T01:29:07;23.00;51.20
13440;DHT22;6792;57.698;11.946;2022-07-29T01:31:43;23.00;51.20
13440;DHT22;6792;57.698;11.946;2022-07-29T01:34:17;23.00;50.70
13440;DHT22;6792;57.698;11.946;2022-07-29T01:36:50;23.00;51.20
13440;DHT22;6792;57.698;11.946;2022-07-29T01:39:23;23.00;51.20
13440;DHT22;6792;57.698;11.946;2022-07-29T01:41:56;22.90;50.60
13440;DHT22;6792;57.698;11.946;2022-07-29T01:44:29;22.90;51.20
13440;DHT22;6792;57.698;11.946;2022-07-29T01:47:00;22.90;51.20
13440;DHT22;6792;57.698;11.946;2022-07-29T01:49:31;22.90;51.20
13440;DHT22;6792;57.698;11.946;2022-07-29T01:52:03;22.90;50.60
13440;DHT22;6792;57.698;11.946;2022-07-29T01:54:38;22.90;51.20
13440;DHT22;6792;57.698;11.946;2022-07-29T01:57:07;22.80;50.70
13440;DHT22;6792;57.698;11.946;2022-07-29T01:59:38;22.80;51.20
13440;DHT22;6792;57.698;11.946;2022-07-29T02:02:10;22.80;51.30
13440;DHT22;6792;57.698;11.946;2022-07-29T02:04:40;22.80;50.80
13440;DHT22;6792;57.698;11.946;2022-07-29T02:07:13;22.70;50.80
13440;DHT22;6792;57.698;11.946;2022-07-29T02:09:45;22.80;51.40
13440;DHT22;6792;57.698;11.946;2022-07-29T02:12:17;22.70;51.30
13440;DHT22;6792;57.698;11.946;2022-07-29T02:14:50;22.80;51.30
13440;DHT22;6792;57.698;11.946;2022-07-29T02:17:21;22.70;51.30
13440;DHT22;6792;57.698;11.946;2022-07-29T02:19:51;22.70;51.30
13440;DHT22;6792;57.698;11.946;2022-07-29T02:22:21;22.70;50.80
13440;DHT22;6792;57.698;11.946;2022-07-29T02:24:51;22.70;51.30
13440;DHT22;6792;57.698;11.946;2022-07-29T02:27:21;22.60;51.90
13440;DHT22;6792;57.698;11.946;2022-07-29T02:29:52;22.70;51.30
13440;DHT22;6792;57.698;11.946;2022-07-29T02:32:22;22.60;51.30
13440;DHT22;6792;57.698;11.946;2022-07-29T02:34:53;22.60;50.80
13440;DHT22;6792;57.698;11.946;2022-07-29T02:37:23;22.60;50.80
13440;DHT22;6792;57.698;11.946;2022-07-29T02:39:53;22.60;51.40
13440;DHT22;6792;57.698;11.946;2022-07-29T02:42:24;22.60;51.40
13440;DHT22;6792;57.698;11.946;2022-07-29T02:44:54;22.60;51.40
13440;DHT22;6792;57.698;11.946;2022-07-29T02:47:27;22.50;51.30
13440;DHT22;6792;57.698;11.946;2022-07-29T02:50:00;22.50;51.40
13440;DHT22;6792;57.698;11.946;2022-07-29T02:52:31;22.50;51.40
13440;DHT22;6792;57.698;11.946;2022-07-29T02:55:02;22.40;51.50
13440;DHT22;6792;57.698;11.946;2022-07-29T02:57:36;22.40;51.50
13440;DHT22;6792;57.698;11.946;2022-07-29T03:00:10;22.40;51.50
13440;DHT22;6792;57.698;11.946;2022-07-29T03:05:40;22.40;51.00
13440;DHT22;6792;57.698;11.946;2022-07-29T03:08:10;22.40;51.50
13440;DHT22;6792;57.698;11.946;2022-07-29T03:10:42;22.40;51.50
13440;DHT22;6792;57.698;11.946;2022-07-29T03:13:11;22.40;51.50
13440;DHT22;6792;57.698;11.946;2022-07-29T03:15:42;22.40;51.60
13440;DHT22;6792;57.698;11.946;2022-07-29T03:18:12;22.40;51.60
13440;DHT22;6792;57.698;11.946;2022-07-29T03:20:41;22.40;51.60
13440;DHT22;6792;57.698;11.946;2022-07-29T03:23:10;22.30;51.50
13440;DHT22;6792;57.698;11.946;2022-07-29T03:25:39;22.40;51.60
13440;DHT22;6792;57.698;11.946;2022-07-29T03:28:08;22.30;51.60
13440;DHT22;6792;57.698;11.946;2022-07-29T03:30:38;22.30;51.60
13440;DHT22;6792;57.698;11.946;2022-07-29T03:33:07;22.30;51.60
13440;DHT22;6792;57.698;11.946;2022-07-29T03:35:36;22.30;51.70
13440;DHT22;6792;57.698;11.946;2022-07-29T03:38:05;22.30;51.70
13440;DHT22;6792;57.698;11.946;2022-07-29T03:40:37;22.30;51.70
13440;DHT22;6792;57.698;11.946;2022-07-29T03:43:07;22.30;51.70
13440;DHT22;6792;57.698;11.946;2022-07-29T03:45:38;22.30;51.70
13440;DHT22;6792;57.698;11.946;2022-07-29T03:48:10;22.30;51.70
13440;DHT22;6792;57.698;11.946;2022-07-29T03:50:39;22.20;51.70
13440;DHT22;6792;57.698;11.946;2022-07-29T03:53:08;22.20;51.70
13440;DHT22;6792;57.698;11.946;2022-07-29T03:55:41;22.20;51.70
13440;DHT22;6792;57.698;11.946;2022-07-29T03:58:11;22.20;51.20
13440;DHT22;6792;57.698;11.946;2022-07-29T04:00:41;22.20;51.80
13440;DHT22;6792;57.698;11.946;2022-07-29T04:03:10;22.10;51.70
13440;DHT22;6792;57.698;11.946;2022-07-29T04:05:39;22.10;51.70
13440;DHT22;6792;57.698;11.946;2022-07-29T04:08:08;22.10;51.20
13440;DHT22;6792;57.698;11.946;2022-07-29T04:10:38;22.10;51.20
13440;DHT22;6792;57.698;11.946;2022-07-29T04:13:07;22.10;51.20
13440;DHT22;6792;57.698;11.946;2022-07-29T04:15:36;22.10;51.90
13440;DHT22;6792;57.698;11.946;2022-07-29T04:18:05;22.00;52.00
13440;DHT22;6792;57.698;11.946;2022-07-29T04:20:34;22.10;52.00
13440;DHT22;6792;57.698;11.946;2022-07-29T04:23:03;22.10;52.00
13440;DHT22;6792;57.698;11.946;2022-07-29T04:25:32;22.10;52.00
13440;DHT22;6792;57.698;11.946;2022-07-29T04:28:01;22.10;52.00
13440;DHT22;6792;57.698;11.946;2022-07-29T04:30:31;22.10;52.00
13440;DHT22;6792;57.698;11.946;2022-07-29T04:33:01;22.10;52.00
13440;DHT22;6792;57.698;11.946;2022-07-29T04:35:33;22.10;52.00
13440;DHT22;6792;57.698;11.946;2022-07-29T04:38:01;22.10;52.00
13440;DHT22;6792;57.698;11.946;2022-07-29T04:40:31;22.10;52.00
13440;DHT22;6792;57.698;11.946;2022-07-29T04:43:01;22.10;52.10
13440;DHT22;6792;57.698;11.946;2022-07-29T04:45:30;22.10;52.10
13440;DHT22;6792;57.698;11.946;2022-07-29T04:47:59;22.10;52.10
13440;DHT22;6792;57.698;11.946;2022-07-29T04:50:28;22.20;52.20
13440;DHT22;6792;57.698;11.946;2022-07-29T04:52:57;22.20;52.20
13440;DHT22;6792;57.698;11.946;2022-07-29T04:55:26;22.20;52.20
13440;DHT22;6792;57.698;11.946;2022-07-29T04:57:55;22.20;52.20
13440;DHT22;6792;57.698;11.946;2022-07-29T05:00:24;22.20;52.30
13440;DHT22;6792;57.698;11.946;2022-07-29T05:02:53;22.20;52.30
13440;DHT22;6792;57.698;11.946;2022-07-29T05:05:21;22.20;51.80
13440;DHT22;6792;57.698;11.946;2022-07-29T05:07:50;22.30;52.40
13440;DHT22;6792;57.698;11.946;2022-07-29T05:10:19;22.30;52.40
13440;DHT22;6792;57.698;11.946;2022-07-29T05:12:48;22.30;52.40
13440;DHT22;6792;57.698;11.946;2022-07-29T05:15:18;22.30;52.40
13440;DHT22;6792;57.698;11.946;2022-07-29T05:17:50;22.40;52.40
13440;DHT22;6792;57.698;11.946;2022-07-29T05:20:18;22.40;52.40
13440;DHT22;6792;57.698;11.946;2022-07-29T05:22:49;22.50;52.40
13440;DHT22;6792;57.698;11.946;2022-07-29T05:25:21;22.50;52.40
13440;DHT22;6792;57.698;11.946;2022-07-29T05:27:50;22.50;51.90
13440;DHT22;6792;57.698;11.946;2022-07-29T05:30:20;22.50;52.50
13440;DHT22;6792;57.698;11.946;2022-07-29T05:32:49;22.50;52.40
13440;DHT22;6792;57.698;11.946;2022-07-29T05:35:19;22.60;52.50
13440;DHT22;6792;57.698;11.946;2022-07-29T05:37:47;22.60;52.50
13440;DHT22;6792;57.698;11.946;2022-07-29T05:40:17;22.70;53.00
13440;DHT22;6792;57.698;11.946;2022-07-29T05:42:48;22.70;51.90
13440;DHT22;6792;57.698;11.946;2022-07-29T05:45:17;22.80;52.50
13440;DHT22;6792;57.698;11.946;2022-07-29T05:47:47;22.80;52.40
13440;DHT22;6792;57.698;11.946;2022-07-29T05:50:19;22.80;51.90
13440;DHT22;6792;57.698;11.946;2022-07-29T05:52:48;22.90;51.90
13440;DHT22;6792;57.698;11.946;2022-07-29T05:55:20;22.90;52.50
13440;DHT22;6792;57.698;11.946;2022-07-29T05:57:49;23.00;52.40
13440;DHT22;6792;57.698;11.946;2022-07-29T06:00:21;23.00;52.30
13440;DHT22;6792;57.698;11.946;2022-07-29T06:02:50;23.10;52.40
13440;DHT22;6792;57.698;11.946;2022-07-29T06:05:19;23.10;52.40
13440;DHT22;6792;57.698;11.946;2022-07-29T06:07:50;23.10;52.30
13440;DHT22;6792;57.698;11.946;2022-07-29T06:10:19;23.20;52.30
13440;DHT22;6792;57.698;11.946;2022-07-29T06:12:48;23.20;52.30
13440;DHT22;6792;57.698;11.946;2022-07-29T06:15:20;23.30;51.80
13440;DHT22;6792;57.698;11.946;2022-07-29T06:17:49;23.30;52.30
13440;DHT22;6792;57.698;11.946;2022-07-29T06:20:21;23.40;52.30
13440;DHT22;6792;57.698;11.946;2022-07-29T06:22:50;23.40;52.20
13440;DHT22;6792;57.698;11.946;2022-07-29T06:25:19;23.50;52.20
13440;DHT22;6792;57.698;11.946;2022-07-29T06:27:51;23.50;52.20
13440;DHT22;6792;57.698;11.946;2022-07-29T06:30:20;23.50;51.60
13440;DHT22;6792;57.698;11.946;2022-07-29T06:32:49;23.60;52.10
13440;DHT22;6792;57.698;11.946;2022-07-29T06:35:18;23.70;52.20
13440;DHT22;6792;57.698;11.946;2022-07-29T06:37:48;23.70;52.20
13440;DHT22;6792;57.698;11.946;2022-07-29T06:40:27;23.80;52.20
13440;DHT22;6792;57.698;11.946;2022-07-29T06:43:17;23.80;51.60
13440;DHT22;6792;57.698;11.946;2022-07-29T06:45:47;23.80;52.40
13440;DHT22;6792;57.698;11.946;2022-07-29T06:48:19;23.80;52.20
13440;DHT22;6792;57.698;11.946;2022-07-29T06:50:50;23.90;51.50
13440;DHT22;6792;57.698;11.946;2022-07-29T06:53:19;24.10;52.00
13440;DHT22;6792;57.698;11.946;2022-07-29T06:55:49;24.20;51.20
13440;DHT22;6792;57.698;11.946;2022-07-29T06:58:21;24.20;51.50
13440;DHT22;6792;57.698;11.946;2022-07-29T07:00:50;24.30;51.40
13440;DHT22;6792;57.698;11.946;2022-07-29T07:03:19;24.40;51.30
13440;DHT22;6792;57.698;11.946;2022-07-29T07:05:49;24.40;51.10
13440;DHT22;6792;57.698;11.946;2022-07-29T07:08:18;24.50;51.00
13440;DHT22;6792;57.698;11.946;2022-07-29T07:10:51;24.50;50.70
13440;DHT22;6792;57.698;11.946;2022-07-29T07:13:24;24.60;49.90
13440;DHT22;6792;57.698;11.946;2022-07-29T07:15:53;24.70;50.40
13440;DHT22;6792;57.698;11.946;2022-07-29T07:18:22;24.80;50.20
13440;DHT22;6792;57.698;11.946;2022-07-29T07:20:51;24.80;50.00
13440;DHT22;6792;57.698;11.946;2022-07-29T07:23:20;24.90;49.40
13440;DHT22;6792;57.698;11.946;2022-07-29T07:25:49;25.00;49.80
13440;DHT22;6792;57.698;11.946;2022-07-29T07:28:18;25.00;49.70
13440;DHT22;6792;57.698;11.946;2022-07-29T07:30:50;25.10;49.50
13440;DHT22;6792;57.698;11.946;2022-07-29T07:33:19;25.10;49.30
13440;DHT22;6792;57.698;11.946;2022-07-29T07:35:50;25.20;49.10
13440;DHT22;6792;57.698;11.946;2022-07-29T07:38:19;25.30;49.10
13440;DHT22;6792;57.698;11.946;2022-07-29T07:40:48;25.30;49.10
13440;DHT22;6792;57.698;11.946;2022-07-29T07:43:17;25.40;48.90
13440;DHT22;6792;57.698;11.946;2022-07-29T07:45:48;25.40;48.90
13440;DHT22;6792;57.698;11.946;2022-07-29T07:48:19;25.40;48.80
13440;DHT22;6792;57.698;11.946;2022-07-29T07:50:48;25.40;48.80
13440;DHT22;6792;57.698;11.946;2022-07-29T07:53:21;25.40;48.70
13440;DHT22;6792;57.698;11.946;2022-07-29T07:55:50;25.40;48.70
13440;DHT22;6792;57.698;11.946;2022-07-29T07:58:19;25.50;48.80
13440;DHT22;6792;57.698;11.946;2022-07-29T08:00:48;25.50;48.70
13440;DHT22;6792;57.698;11.946;2022-07-29T08:05:59;25.60;48.20
13440;DHT22;6792;57.698;11.946;2022-07-29T08:08:28;25.60;48.70
13440;DHT22;6792;57.698;11.946;2022-07-29T08:10:57;25.60;48.70
13440;DHT22;6792;57.698;11.946;2022-07-29T08:13:27;25.60;48.60
13440;DHT22;6792;57.698;11.946;2022-07-29T08:15:58;25.60;48.60
13440;DHT22;6792;57.698;11.946;2022-07-29T08:18:29;25.70;48.60
13440;DHT22;6792;57.698;11.946;2022-07-29T08:20:59;25.70;48.70
13440;DHT22;6792;57.698;11.946;2022-07-29T08:23:27;25.70;48.70
13440;DHT22;6792;57.698;11.946;2022-07-29T08:25:58;25.70;48.60
13440;DHT22;6792;57.698;11.946;2022-07-29T08:28:30;25.70;48.70
13440;DHT22;6792;57.698;11.946;2022-07-29T08:30:59;25.70;48.60
13440;DHT22;6792;57.698;11.946;2022-07-29T08:33:28;25.80;48.60
13440;DHT22;6792;57.698;11.946;2022-07-29T08:35:57;25.80;49.10
13440;DHT22;6792;57.698;11.946;2022-07-29T08:38:26;25.80;48.50
13440;DHT22;6792;57.698;11.946;2022-07-29T08:40:55;25.80;48.40
13440;DHT22;6792;57.698;11.946;2022-07-29T08:43:25;25.80;48.50
13440;DHT22;6792;57.698;11.946;2022-07-29T08:45:54;25.90;48.50
13440;DHT22;6792;57.698;11.946;2022-07-29T08:48:24;25.90;48.50
13440;DHT22;6792;57.698;11.946;2022-07-29T08:50:55;25.90;48.60
13440;DHT22;6792;57.698;11.946;2022-07-29T08:53:26;25.90;48.40
13440;DHT22;6792;57.698;11.946;2022-07-29T08:55:57;25.90;48.50
13440;DHT22;6792;57.698;11.946;2022-07-29T08:58:27;26.00;48.50
13440;DHT22;6792;57.698;11.946;2022-07-29T09:00:57;26.00;48.50
13440;DHT22;6792;57.698;11.946;2022-07-29T09:03:31;26.00;48.40
13440;DHT22;6792;57.698;11.946;2022-07-29T09:06:00;26.00;48.30
13440;DHT22;6792;57.698;11.946;2022-07-29T09:08:30;26.00;48.30
13440;DHT22;6792;57.698;11.946;2022-07-29T09:11:01;26.00;48.30
13440;DHT22;6792;57.698;11.946;2022-07-29T09:13:31;26.10;48.30
13440;DHT22;6792;57.698;11.946;2022-07-29T09:16:00;26.10;48.30
13440;DHT22;6792;57.698;11.946;2022-07-29T09:18:37;26.20;48.20
13440;DHT22;6792;57.698;11.946;2022-07-29T09:21:07;26.20;48.10
13440;DHT22;6792;57.698;11.946;2022-07-29T09:24:03;26.20;48.10
13440;DHT22;6792;57.698;11.946;2022-07-29T09:26:33;26.10;48.10
13440;DHT22;6792;57.698;11.946;2022-07-29T09:29:08;26.10;48.10
13440;DHT22;6792;57.698;11.946;2022-07-29T09:31:39;26.10;48.00
13440;DHT22;6792;57.698;11.946;2022-07-29T09:34:10;26.20;48.00
13440;DHT22;6792;57.698;11.946;2022-07-29T09:36:43;26.20;48.00
13440;DHT22;6792;57.698;11.946;2022-07-29T09:39:13;26.20;47.90
13440;DHT22;6792;57.698;11.946;2022-07-29T09:41:48;26.20;47.80
13440;DHT22;6792;57.698;11.946;2022-07-29T09:44:20;26.30;47.80
13440;DHT22;6792;57.698;11.946;2022-07-29T09:46:55;26.30;47.70
13440;DHT22;6792;57.698;11.946;2022-07-29T09:49:26;26.30;47.60
13440;DHT22;6792;57.698;11.946;2022-07-29T09:52:04;26.40;47.60
13440;DHT22;6792;57.698;11.946;2022-07-29T09:54:34;26.40;47.50
13440;DHT22;6792;57.698;11.946;2022-07-29T09:57:07;26.40;47.40
13440;DHT22;6792;57.698;11.946;2022-07-29T09:59:39;26.40;47.20
13440;DHT22;6792;57.698;11.946;2022-07-29T10:02:13;26.50;47.20
13440;DHT22;6792;57.698;11.946;2022-07-29T10:04:42;26.50;47.20
13440;DHT22;6792;57.698;11.946;2022-07-29T10:07:11;26.50;47.00
13440;DHT22;6792;57.698;11.946;2022-07-29T10:09:40;26.50;47.00
13440;DHT22;6792;57.698;11.946;2022-07-29T10:12:11;26.50;47.00
13440;DHT22;6792;57.698;11.946;2022-07-29T10:14:42;26.50;46.80
13440;DHT22;6792;57.698;11.946;2022-07-29T10:17:11;26.50;46.10
13440;DHT22;6792;57.698;11.946;2022-07-29T10:19:40;26.50;46.50
13440;DHT22;6792;57.698;11.946;2022-07-29T10:22:10;26.50;46.30
13440;DHT22;6792;57.698;11.946;2022-07-29T10:24:40;26.60;46.20
13440;DHT22;6792;57.698;11.946;2022-07-29T10:27:09;26.60;45.60
13440;DHT22;6792;57.698;11.946;2022-07-29T10:29:38;26.60;45.90
13440;DHT22;6792;57.698;11.946;2022-07-29T10:32:19;26.60;45.80
13440;DHT22;6792;57.698;11.946;2022-07-29T10:35:01;26.70;45.20
13440;DHT22;6792;57.698;11.946;2022-07-29T10:37:33;26.70;46.40
13440;DHT22;6792;57.698;11.946;2022-07-29T10:42:43;26.70;45.10
13440;DHT22;6792;57.698;11.946;2022-07-29T10:45:12;26.70;45.60
13440;DHT22;6792;57.698;11.946;2022-07-29T10:47:42;26.70;45.50
13440;DHT22;6792;57.698;11.946;2022-07-29T10:50:11;26.70;45.30
13440;DHT22;6792;57.698;11.946;2022-07-29T10:52:56;26.70;45.00
13440;DHT22;6792;57.698;11.946;2022-07-29T10:55:36;26.70;44.60
13440;DHT22;6792;57.698;11.946;2022-07-29T10:58:16;26.70;44.30
13440;DHT22;6792;57.698;11.946;2022-07-29T11:00:47;26.70;44.00
13440;DHT22;6792;57.698;11.946;2022-07-29T11:09:33;26.80;43.20
13440;DHT22;6792;57.698;11.946;2022-07-29T11:12:02;26.80;43.30
13440;DHT22;6792;57.698;11.946;2022-07-29T11:18:05;26.90;41.10
13440;DHT22;6792;57.698;11.946;2022-07-29T11:20:37;26.90;41.90
13440;DHT22;6792;57.698;11.946;2022-07-29T11:23:27;26.90;41.70
13440;DHT22;6792;57.698;11.946;2022-07-29T11:26:17;26.90;40.70
13440;DHT22;6792;57.698;11.946;2022-07-29T11:28:56;27.00;40.60
13440;DHT22;6792;57.698;11.946;2022-07-29T11:31:38;27.00;41.40
13440;DHT22;6792;57.698;11.946;2022-07-29T11:34:28;27.10;41.30
13440;DHT22;6792;57.698;11.946;2022-07-29T11:37:20;27.10;40.40
13440;DHT22;6792;57.698;11.946;2022-07-29T11:40:13;27.10;41.10
13440;DHT22;6792;57.698;11.946;2022-07-29T11:42:50;27.20;41.10
13440;DHT22;6792;57.698;11.946;2022-07-29T11:45:21;27.30;41.40
13440;DHT22;6792;57.698;11.946;2022-07-29T11:47:55;27.40;41.50
13440;DHT22;6792;57.698;11.946;2022-07-29T11:50:32;27.50;41.60
13440;DHT22;6792;57.698;11.946;2022-07-29T11:53:03;27.50;41.50
13440;DHT22;6792;57.698;11.946;2022-07-29T11:55:32;27.50;41.30
13440;DHT22;6792;57.698;11.946;2022-07-29T11:58:03;27.60;41.10
13440;DHT22;6792;57.698;11.946;2022-07-29T12:00:34;27.60;40.80
13440;DHT22;6792;57.698;11.946;2022-07-29T12:03:06;27.70;40.50
13440;DHT22;6792;57.698;11.946;2022-07-29T12:05:40;27.70;40.20
13440;DHT22;6792;57.698;11.946;2022-07-29T12:08:13;27.70;40.10
13440;DHT22;6792;57.698;11.946;2022-07-29T12:10:44;27.70;39.90
13440;DHT22;6792;57.698;11.946;2022-07-29T12:13:14;27.80;39.80
13440;DHT22;6792;57.698;11.946;2022-07-29T12:15:52;27.80;39.70
13440;DHT22;6792;57.698;11.946;2022-07-29T12:18:22;27.90;39.60
13440;DHT22;6792;57.698;11.946;2022-07-29T12:20:57;27.90;39.60
13440;DHT22;6792;57.698;11.946;2022-07-29T12:23:26;28.00;39.50
13440;DHT22;6792;57.698;11.946;2022-07-29T12:25:55;28.10;39.40
13440;DHT22;6792;57.698;11.946;2022-07-29T12:28:24;28.10;39.20
13440;DHT22;6792;57.698;11.946;2022-07-29T12:30:53;28.20;39.30
13440;DHT22;6792;57.698;11.946;2022-07-29T12:33:23;28.20;39.10
13440;DHT22;6792;57.698;11.946;2022-07-29T12:35:56;28.30;38.90
13440;DHT22;6792;57.698;11.946;2022-07-29T12:38:26;28.40;38.70
13440;DHT22;6792;57.698;11.946;2022-07-29T12:40:55;28.50;38.40
13440;DHT22;6792;57.698;11.946;2022-07-29T12:43:25;28.50;38.10
13440;DHT22;6792;57.698;11.946;2022-07-29T12:45:57;28.60;38.00
13440;DHT22;6792;57.698;11.946;2022-07-29T12:48:36;28.70;37.80
13440;DHT22;6792;57.698;11.946;2022-07-29T12:51:07;28.70;37.50
13440;DHT22;6792;57.698;11.946;2022-07-29T12:53:38;28.80;36.60
13440;DHT22;6792;57.698;11.946;2022-07-29T12:56:14;28.90;36.60
13440;DHT22;6792;57.698;11.946;2022-07-29T12:58:42;29.00;36.30
13440;DHT22;6792;57.698;11.946;2022-07-29T13:01:13;29.10;36.90
13440;DHT22;6792;57.698;11.946;2022-07-29T13:03:48;29.20;36.70
13440;DHT22;6792;57.698;11.946;2022-07-29T13:06:35;29.30;36.70
13440;DHT22;6792;57.698;11.946;2022-07-29T13:09:10;29.40;36.70
13440;DHT22;6792;57.698;11.946;2022-07-29T13:11:45;29.40;36.70
13440;DHT22;6792;57.698;11.946;2022-07-29T13:14:31;29.50;35.90
13440;DHT22;6792;57.698;11.946;2022-07-29T13:17:05;29.60;36.00
13440;DHT22;6792;57.698;11.946;2022-07-29T13:19:44;29.70;36.50
13440;DHT22;6792;57.698;11.946;2022-07-29T13:22:13;29.80;36.50
13440;DHT22;6792;57.698;11.946;2022-07-29T13:24:50;29.90;36.40
13440;DHT22;6792;57.698;11.946;2022-07-29T13:27:22;30.10;36.10
13440;DHT22;6792;57.698;11.946;2022-07-29T13:29:53;30.20;36.30
13440;DHT22;6792;57.698;11.946;2022-07-29T13:32:24;30.40;35.70
13440;DHT22;6792;57.698;11.946;2022-07-29T13:34:54;30.80;35.70
13440;DHT22;6792;57.698;11.946;2022-07-29T13:37:25;31.40;36.40
13440;DHT22;6792;57.698;11.946;2022-07-29T13:39:57;31.90;35.40
13440;DHT22;6792;57.698;11.946;2022-07-29T13:42:27;34.70;36.50
13440;DHT22;6792;57.698;11.946;2022-07-29T13:44:56;32.80;34.90
13440;DHT22;6792;57.698;11.946;2022-07-29T13:47:26;33.30;35.40
13440;DHT22;6792;57.698;11.946;2022-07-29T13:49:59;33.80;35.10
13440;DHT22;6792;57.698;11.946;2022-07-29T13:52:32;34.30;33.50
13440;DHT22;6792;57.698;11.946;2022-07-29T13:55:10;34.70;34.30
13440;DHT22;6792;57.698;11.946;2022-07-29T13:57:42;35.60;33.10
13440;DHT22;6792;57.698;11.946;2022-07-29T14:00:12;35.40;32.70
13440;DHT22;6792;57.698;11.946;2022-07-29T14:02:42;35.80;33.70
13440;DHT22;6792;57.698;11.946;2022-07-29T14:05:11;36.10;31.90
13440;DHT22;6792;57.698;11.946;2022-07-29T14:07:40;36.40;32.00
13440;DHT22;6792;57.698;11.946;2022-07-29T14:10:10;36.70;31.60
13440;DHT22;6792;57.698;11.946;2022-07-29T14:12:39;36.80;30.70
13440;DHT22;6792;57.698;11.946;2022-07-29T14:15:10;36.70;30.40
13440;DHT22;6792;57.698;11.946;2022-07-29T14:17:40;36.60;30.30
13440;DHT22;6792;57.698;11.946;2022-07-29T14:20:12;36.40;30.10
13440;DHT22;6792;57.698;11.946;2022-07-29T14:22:43;36.10;29.90
13440;DHT22;6792;57.698;11.946;2022-07-29T14:25:12;35.80;30.00
13440;DHT22;6792;57.698;11.946;2022-07-29T14:27:41;35.60;30.00
13440;DHT22;6792;57.698;11.946;2022-07-29T14:30:11;35.30;29.90
13440;DHT22;6792;57.698;11.946;2022-07-29T14:32:41;34.90;29.90
13440;DHT22;6792;57.698;11.946;2022-07-29T14:35:10;34.60;29.90
13440;DHT22;6792;57.698;11.946;2022-07-29T14:37:39;34.40;30.00
13440;DHT22;6792;57.698;11.946;2022-07-29T14:40:10;34.10;30.20
13440;DHT22;6792;57.698;11.946;2022-07-29T14:42:39;33.80;30.40
13440;DHT22;6792;57.698;11.946;2022-07-29T14:45:09;33.60;30.80
13440;DHT22;6792;57.698;11.946;2022-07-29T14:47:39;33.40;31.20
13440;DHT22;6792;57.698;11.946;2022-07-29T14:50:09;33.20;31.40
13440;DHT22;6792;57.698;11.946;2022-07-29T14:52:38;32.90;31.70
13440;DHT22;6792;57.698;11.946;2022-07-29T14:55:08;32.80;31.90
13440;DHT22;6792;57.698;11.946;2022-07-29T14:57:37;32.60;32.10
13440;DHT22;6792;57.698;11.946;2022-07-29T15:00:11;32.40;32.30
13440;DHT22;6792;57.698;11.946;2022-07-29T15:02:40;32.20;32.50
13440;DHT22;6792;57.698;11.946;2022-07-29T15:05:11;32.00;32.80
13440;DHT22;6792;57.698;11.946;2022-07-29T15:07:40;31.80;32.40
13440;DHT22;6792;57.698;11.946;2022-07-29T15:10:09;31.70;33.20
13440;DHT22;6792;57.698;11.946;2022-07-29T15:12:38;31.60;33.40
13440;DHT22;6792;57.698;11.946;2022-07-29T15:15:08;31.40;33.50
13440;DHT22;6792;57.698;11.946;2022-07-29T15:17:38;31.30;33.70
13440;DHT22;6792;57.698;11.946;2022-07-29T15:20:08;31.20;33.30
13440;DHT22;6792;57.698;11.946;2022-07-29T15:22:38;31.00;33.50
13440;DHT22;6792;57.698;11.946;2022-07-29T15:25:09;31.00;34.30
13440;DHT22;6792;57.698;11.946;2022-07-29T15:27:38;30.80;34.30
13440;DHT22;6792;57.698;11.946;2022-07-29T15:30:10;30.70;34.40
13440;DHT22;6792;57.698;11.946;2022-07-29T15:32:39;30.60;34.50
13440;DHT22;6792;57.698;11.946;2022-07-29T15:35:10;30.50;34.60
13440;DHT22;6792;57.698;11.946;2022-07-29T15:37:39;30.40;34.80
13440;DHT22;6792;57.698;11.946;2022-07-29T15:40:10;30.30;34.60
13440;DHT22;6792;57.698;11.946;2022-07-29T15:42:39;30.20;34.10
13440;DHT22;6792;57.698;11.946;2022-07-29T15:45:11;30.10;34.70
13440;DHT22;6792;57.698;11.946;2022-07-29T15:47:40;30.00;34.80
13440;DHT22;6792;57.698;11.946;2022-07-29T15:50:10;30.00;34.90
13440;DHT22;6792;57.698;11.946;2022-07-29T15:52:41;29.90;34.30
13440;DHT22;6792;57.698;11.946;2022-07-29T15:55:15;29.80;34.30
13440;DHT22;6792;57.698;11.946;2022-07-29T15:57:45;29.80;35.00
13440;DHT22;6792;57.698;11.946;2022-07-29T16:00:15;29.70;34.50
13440;DHT22;6792;57.698;11.946;2022-07-29T16:02:49;29.60;34.40
13440;DHT22;6792;57.698;11.946;2022-07-29T16:05:18;29.60;34.50
13440;DHT22;6792;57.698;11.946;2022-07-29T16:07:49;29.60;35.10
13440;DHT22;6792;57.698;11.946;2022-07-29T16:10:18;29.50;35.20
13440;DHT22;6792;57.698;11.946;2022-07-29T16:12:49;29.50;34.60